sensor_id;sensor_type;location;lat;lon;timestamp;temperature;humidity
12223;DHT22;6174;49.058;8.524;2023-07-13T05:00:50;18.00;99.90
12223;DHT22;6174;49.058;8.524;2023-07-13T05:03:17;18.10;99.90
12223;DHT22;6174;49.058;8.524;2023-07-13T05:05:54;18.10;99.90
12223;DHT22;6174;49.058;8.524;2023-07-13T05:08:21;18.10;99.90
12223;DHT22;6174;49.058;8.524;2023-07-13T05:10:48;18.10;99.90
12223;DHT22;6174;49.058;8.524;2023-07-13T05:13:15;18.10;99.60
12223;DHT22;6174;49.058;8.524;2023-07-13T05:15:41;18.10;99.50
12223;DHT22;6174;49.058;8.524;2023-07-13T05:18:09;18.20;99.50
12223;DHT22;6174;49.058;8.524;2023-07-13T05:20:36;18.20;99.20
12223;DHT22;6174;49.058;8.524;2023-07-13T05:23:03;18.20;99.10
12223;DHT22;6174;49.058;8.524;2023-07-13T05:25:30;18.30;99.20
12223;DHT22;6174;49.058;8.524;2023-07-13T05:27:57;18.30;99.30
12223;DHT22;6174;49.058;8.524;2023-07-13T05:30:23;18.30;99.10
12223;DHT22;6174;49.058;8.524;2023-07-13T05:32:50;18.40;99.60
12223;DHT22;6174;49.058;8.524;2023-07-13T05:35:18;18.50;99.10
12223;DHT22;6174;49.058;8.524;2023-07-13T05:37:45;18.50;99.50
12223;DHT22;6174;49.058;8.524;2023-07-13T05:40:12;18.50;99.90
12223;DHT22;6174;49.058;8.524;2023-07-13T05:42:38;18.60;99.20
12223;DHT22;6174;49.058;8.524;2023-07-13T05:45:06;18.60;99.70
12223;DHT22;6174;49.058;8.524;2023-07-13T05:47:33;18.70;99.10
12223;DHT22;6174;49.058;8.524;2023-07-13T05:49:59;18.80;99.50
12223;DHT22;6174;49.058;8.524;2023-07-13T05:52:27;18.90;99.20
12223;DHT22;6174;49.058;8.524;2023-07-13T05:54:54;18.90;99.10
12223;DHT22;6174;49.058;8.524;2023-07-13T05:57:21;18.90;98.60
12223;DHT22;6174;49.058;8.524;2023-07-13T05:59:48;18.80;98.50
12223;DHT22;6174;49.058;8.524;2023-07-13T06:02:15;18.90;99.00
12223;DHT22;6174;49.058;8.524;2023-07-13T06:04:41;19.00;99.20
12223;DHT22;6174;49.058;8.524;2023-07-13T06:07:08;19.20;99.10
12223;DHT22;6174;49.058;8.524;2023-07-13T06:09:36;19.30;98.60
12223;DHT22;6174;49.058;8.524;2023-07-13T06:12:04;19.40;98.30
12223;DHT22;6174;49.058;8.524;2023-07-13T06:14:31;19.50;97.00
12223;DHT22;6174;49.058;8.524;2023-07-13T06:16:58;19.60;97.60
12223;DHT22;6174;49.058;8.524;2023-07-13T06:19:25;19.90;97.50
12223;DHT22;6174;49.058;8.524;2023-07-13T06:21:51;20.10;97.20
12223;DHT22;6174;49.058;8.524;2023-07-13T06:24:18;20.10;96.00
12223;DHT22;6174;49.058;8.524;2023-07-13T06:26:46;20.20;95.40
12223;DHT22;6174;49.058;8.524;2023-07-13T06:29:13;20.20;94.30
12223;DHT22;6174;49.058;8.524;2023-07-13T06:31:40;20.40;94.30
12223;DHT22;6174;49.058;8.524;2023-07-13T06:34:06;20.30;94.00
12223;DHT22;6174;49.058;8.524;2023-07-13T06:36:33;20.50;94.30
12223;DHT22;6174;49.058;8.524;2023-07-13T06:39:01;20.30;94.50
12223;DHT22;6174;49.058;8.524;2023-07-13T06:41:28;20.30;94.60
12223;DHT22;6174;49.058;8.524;2023-07-13T06:43:57;20.40;94.90
12223;DHT22;6174;49.058;8.524;2023-07-13T06:46:24;20.40;95.70
12223;DHT22;6174;49.058;8.524;2023-07-13T06:48:50;20.40;95.10
12223;DHT22;6174;49.058;8.524;2023-07-13T06:51:17;20.40;94.90
12223;DHT22;6174;49.058;8.524;2023-07-13T06:53:44;20.40;94.60
12223;DHT22;6174;49.058;8.524;2023-07-13T06:56:11;20.50;93.70
12223;DHT22;6174;49.058;8.524;2023-07-13T06:58:38;20.60;93.20
12223;DHT22;6174;49.058;8.524;2023-07-13T07:01:06;20.60;92.70
12223;DHT22;6174;49.058;8.524;2023-07-13T07:03:33;20.50;93.10
12223;DHT22;6174;49.058;8.524;2023-07-13T07:06:00;20.60;91.80
12223;DHT22;6174;49.058;8.524;2023-07-13T07:08:27;20.70;91.90
12223;DHT22;6174;49.058;8.524;2023-07-13T07:10:54;20.80;91.30
12223;DHT22;6174;49.058;8.524;2023-07-13T07:13:21;20.90;92.10
12223;DHT22;6174;49.058;8.524;2023-07-13T07:15:47;21.00;91.10
12223;DHT22;6174;49.058;8.524;2023-07-13T07:18:17;21.00;90.50
12223;DHT22;6174;49.058;8.524;2023-07-13T07:20:44;21.10;90.10
12223;DHT22;6174;49.058;8.524;2023-07-13T07:23:10;21.00;90.20
12223;DHT22;6174;49.058;8.524;2023-07-13T07:25:37;21.10;86.80
12223;DHT22;6174;49.058;8.524;2023-07-13T07:28:07;21.10;87.50
12223;DHT22;6174;49.058;8.524;2023-07-13T07:30:34;21.10;86.20
12223;DHT22;6174;49.058;8.524;2023-07-13T07:33:01;21.20;86.90
12223;DHT22;6174;49.058;8.524;2023-07-13T07:35:29;21.30;86.90
12223;DHT22;6174;49.058;8.524;2023-07-13T07:37:56;21.40;85.30
12223;DHT22;6174;49.058;8.524;2023-07-13T07:40:23;21.40;86.40
12223;DHT22;6174;49.058;8.524;2023-07-13T07:42:50;21.40;85.20
12223;DHT22;6174;49.058;8.524;2023-07-13T07:45:18;21.40;86.30
12223;DHT22;6174;49.058;8.524;2023-07-13T07:47:45;21.50;84.00
12223;DHT22;6174;49.058;8.524;2023-07-13T07:50:12;21.50;85.20
12223;DHT22;6174;49.058;8.524;2023-07-13T07:52:41;21.60;84.50
12223;DHT22;6174;49.058;8.524;2023-07-13T07:55:09;21.60;85.80
12223;DHT22;6174;49.058;8.524;2023-07-13T07:57:36;21.70;84.80
12223;DHT22;6174;49.058;8.524;2023-07-13T08:00:03;21.80;85.10
12223;DHT22;6174;49.058;8.524;2023-07-13T08:02:30;21.90;82.30
12223;DHT22;6174;49.058;8.524;2023-07-13T08:04:57;21.90;81.70
12223;DHT22;6174;49.058;8.524;2023-07-13T08:07:24;21.90;81.70
12223;DHT22;6174;49.058;8.524;2023-07-13T08:09:53;21.90;82.10
12223;DHT22;6174;49.058;8.524;2023-07-13T08:12:20;21.90;81.30
12223;DHT22;6174;49.058;8.524;2023-07-13T08:14:50;21.90;82.50
12223;DHT22;6174;49.058;8.524;2023-07-13T08:17:19;22.10;81.50
12223;DHT22;6174;49.058;8.524;2023-07-13T08:19:45;22.20;81.50
12223;DHT22;6174;49.058;8.524;2023-07-13T08:22:12;22.30;79.40
12223;DHT22;6174;49.058;8.524;2023-07-13T08:24:39;22.30;80.50
12223;DHT22;6174;49.058;8.524;2023-07-13T08:27:10;22.30;80.20
12223;DHT22;6174;49.058;8.524;2023-07-13T08:29:37;22.40;78.40
12223;DHT22;6174;49.058;8.524;2023-07-13T08:32:05;22.40;80.80
12223;DHT22;6174;49.058;8.524;2023-07-13T08:34:34;22.50;78.10
12223;DHT22;6174;49.058;8.524;2023-07-13T08:37:01;22.50;75.40
12223;DHT22;6174;49.058;8.524;2023-07-13T08:39:30;22.40;76.20
12223;DHT22;6174;49.058;8.524;2023-07-13T08:42:02;22.50;72.80
12223;DHT22;6174;49.058;8.524;2023-07-13T08:44:43;22.60;73.70
12223;DHT22;6174;49.058;8.524;2023-07-13T08:47:14;22.50;73.70
12223;DHT22;6174;49.058;8.524;2023-07-13T08:49:42;22.40;75.70
12223;DHT22;6174;49.058;8.524;2023-07-13T08:52:16;22.30;74.90
12223;DHT22;6174;49.058;8.524;2023-07-13T08:54:50;22.30;74.70
12223;DHT22;6174;49.058;8.524;2023-07-13T08:57:20;22.40;74.90
12223;DHT22;6174;49.058;8.524;2023-07-13T08:59:49;22.50;75.90
12223;DHT22;6174;49.058;8.524;2023-07-13T09:02:25;22.70;76.50
12223;DHT22;6174;49.058;8.524;2023-07-13T09:04:56;22.70;72.60
12223;DHT22;6174;49.058;8.524;2023-07-13T09:07:32;23.00;71.70
12223;DHT22;6174;49.058;8.524;2023-07-13T09:10:11;22.80;74.10
12223;DHT22;6174;49.058;8.524;2023-07-13T09:12:48;23.00;70.90
12223;DHT22;6174;49.058;8.524;2023-07-13T09:15:23;23.10;69.80
12223;DHT22;6174;49.058;8.524;2023-07-13T09:17:52;23.10;70.70
12223;DHT22;6174;49.058;8.524;2023-07-13T09:20:26;23.20;72.30
12223;DHT22;6174;49.058;8.524;2023-07-13T09:22:56;23.20;71.40
12223;DHT22;6174;49.058;8.524;2023-07-13T09:25:29;23.40;68.80
12223;DHT22;6174;49.058;8.524;2023-07-13T09:27:59;23.40;69.70
12223;DHT22;6174;49.058;8.524;2023-07-13T09:30:34;23.40;68.50
12223;DHT22;6174;49.058;8.524;2023-07-13T09:33:03;23.40;66.70
12223;DHT22;6174;49.058;8.524;2023-07-13T09:35:30;23.30;66.20
12223;DHT22;6174;49.058;8.524;2023-07-13T09:37:59;23.20;68.10
12223;DHT22;6174;49.058;8.524;2023-07-13T09:40:32;23.30;68.30
12223;DHT22;6174;49.058;8.524;2023-07-13T09:43:03;23.40;67.90
12223;DHT22;6174;49.058;8.524;2023-07-13T09:45:34;23.50;68.90
12223;DHT22;6174;49.058;8.524;2023-07-13T09:48:05;23.50;67.80
12223;DHT22;6174;49.058;8.524;2023-07-13T09:50:34;23.50;64.50
12223;DHT22;6174;49.058;8.524;2023-07-13T09:53:01;23.40;65.80
12223;DHT22;6174;49.058;8.524;2023-07-13T09:55:31;23.50;66.30
12223;DHT22;6174;49.058;8.524;2023-07-13T09:58:03;23.60;67.70
12223;DHT22;6174;49.058;8.524;2023-07-13T10:00:32;23.60;64.90
12223;DHT22;6174;49.058;8.524;2023-07-13T10:03:04;23.70;66.10
12223;DHT22;6174;49.058;8.524;2023-07-13T10:05:38;23.70;66.60
12223;DHT22;6174;49.058;8.524;2023-07-13T10:08:05;23.80;64.70
12223;DHT22;6174;49.058;8.524;2023-07-13T10:10:33;23.80;65.10
12223;DHT22;6174;49.058;8.524;2023-07-13T10:13:01;23.80;64.40
12223;DHT22;6174;49.058;8.524;2023-07-13T10:15:30;23.70;65.00
12223;DHT22;6174;49.058;8.524;2023-07-13T10:17:58;23.70;64.20
12223;DHT22;6174;49.058;8.524;2023-07-13T10:20:26;23.90;63.70
12223;DHT22;6174;49.058;8.524;2023-07-13T10:22:57;23.90;62.20
12223;DHT22;6174;49.058;8.524;2023-07-13T10:25:28;23.80;63.20
12223;DHT22;6174;49.058;8.524;2023-07-13T10:28:00;23.90;63.20
12223;DHT22;6174;49.058;8.524;2023-07-13T10:30:31;23.90;63.30
12223;DHT22;6174;49.058;8.524;2023-07-13T10:33:03;24.00;64.10
12223;DHT22;6174;49.058;8.524;2023-07-13T10:35:31;24.00;65.30
12223;DHT22;6174;49.058;8.524;2023-07-13T10:38:02;24.20;63.90
12223;DHT22;6174;49.058;8.524;2023-07-13T10:40:36;24.20;63.70
12223;DHT22;6174;49.058;8.524;2023-07-13T10:43:06;24.20;63.80
12223;DHT22;6174;49.058;8.524;2023-07-13T10:45:35;24.30;64.50
12223;DHT22;6174;49.058;8.524;2023-07-13T10:48:05;24.40;62.90
12223;DHT22;6174;49.058;8.524;2023-07-13T10:50:44;24.40;63.40
12223;DHT22;6174;49.058;8.524;2023-07-13T10:53:19;24.50;63.50
12223;DHT22;6174;49.058;8.524;2023-07-13T10:56:00;24.50;64.40
12223;DHT22;6174;49.058;8.524;2023-07-13T10:58:33;24.50;63.60
12223;DHT22;6174;49.058;8.524;2023-07-13T11:01:07;24.50;62.70
12223;DHT22;6174;49.058;8.524;2023-07-13T11:03:46;24.60;63.40
12223;DHT22;6174;49.058;8.524;2023-07-13T11:06:16;24.70;65.40
12223;DHT22;6174;49.058;8.524;2023-07-13T11:08:55;24.80;63.30
12223;DHT22;6174;49.058;8.524;2023-07-13T11:11:38;24.80;62.50
12223;DHT22;6174;49.058;8.524;2023-07-13T11:16:45;25.00;62.20
12223;DHT22;6174;49.058;8.524;2023-07-13T11:22:21;25.20;62.90
12223;DHT22;6174;49.058;8.524;2023-07-13T11:25:00;25.20;61.50
12223;DHT22;6174;49.058;8.524;2023-07-13T11:27:39;25.20;61.60
12223;DHT22;6174;49.058;8.524;2023-07-13T11:33:02;25.00;61.50
12223;DHT22;6174;49.058;8.524;2023-07-13T11:35:34;24.90;62.20
12223;DHT22;6174;49.058;8.524;2023-07-13T11:38:03;24.70;63.10
12223;DHT22;6174;49.058;8.524;2023-07-13T11:40:35;24.70;64.50
12223;DHT22;6174;49.058;8.524;2023-07-13T11:43:06;24.70;63.00
12223;DHT22;6174;49.058;8.524;2023-07-13T11:45:33;24.80;64.80
12223;DHT22;6174;49.058;8.524;2023-07-13T11:48:01;25.00;66.20
12223;DHT22;6174;49.058;8.524;2023-07-13T11:50:27;24.90;62.20
12223;DHT22;6174;49.058;8.524;2023-07-13T11:52:58;24.80;63.10
12223;DHT22;6174;49.058;8.524;2023-07-13T11:55:25;25.00;62.90
12223;DHT22;6174;49.058;8.524;2023-07-13T11:57:57;25.00;62.30
12223;DHT22;6174;49.058;8.524;2023-07-13T12:00:28;24.90;62.30
12223;DHT22;6174;49.058;8.524;2023-07-13T12:02:57;24.80;63.80
12223;DHT22;6174;49.058;8.524;2023-07-13T12:05:26;24.90;61.30
12223;DHT22;6174;49.058;8.524;2023-07-13T12:07:53;25.00;62.00
12223;DHT22;6174;49.058;8.524;2023-07-13T12:10:24;25.20;60.00
12223;DHT22;6174;49.058;8.524;2023-07-13T12:12:56;25.20;59.90
12223;DHT22;6174;49.058;8.524;2023-07-13T12:15:28;25.20;61.90
12223;DHT22;6174;49.058;8.524;2023-07-13T12:17:56;25.40;60.30
12223;DHT22;6174;49.058;8.524;2023-07-13T12:20:25;25.50;61.30
12223;DHT22;6174;49.058;8.524;2023-07-13T12:22:52;25.50;59.70
12223;DHT22;6174;49.058;8.524;2023-07-13T12:25:22;25.50;59.40
12223;DHT22;6174;49.058;8.524;2023-07-13T12:27:50;25.40;59.80
12223;DHT22;6174;49.058;8.524;2023-07-13T12:30:25;25.30;58.80
12223;DHT22;6174;49.058;8.524;2023-07-13T12:32:58;25.10;58.50
12223;DHT22;6174;49.058;8.524;2023-07-13T12:35:28;25.00;59.90
12223;DHT22;6174;49.058;8.524;2023-07-13T12:37:57;24.90;62.80
12223;DHT22;6174;49.058;8.524;2023-07-13T12:40:31;25.00;61.50
12223;DHT22;6174;49.058;8.524;2023-07-13T12:42:59;25.00;61.50
12223;DHT22;6174;49.058;8.524;2023-07-13T12:45:30;25.00;59.70
12223;DHT22;6174;49.058;8.524;2023-07-13T12:48:03;25.00;59.90
12223;DHT22;6174;49.058;8.524;2023-07-13T12:50:37;25.00;61.90
12223;DHT22;6174;49.058;8.524;2023-07-13T12:53:12;25.00;61.90
12223;DHT22;6174;49.058;8.524;2023-07-13T12:55:43;25.00;61.00
12223;DHT22;6174;49.058;8.524;2023-07-13T12:58:17;25.00;59.00
12223;DHT22;6174;49.058;8.524;2023-07-13T13:00:49;25.00;57.30
12223;DHT22;6174;49.058;8.524;2023-07-13T13:03:23;25.00;57.10
12223;DHT22;6174;49.058;8.524;2023-07-13T13:05:57;25.00;57.40
12223;DHT22;6174;49.058;8.524;2023-07-13T13:08:25;25.00;57.20
12223;DHT22;6174;49.058;8.524;2023-07-13T13:10:53;25.00;57.80
12223;DHT22;6174;49.058;8.524;2023-07-13T13:13:20;24.90;57.30
12223;DHT22;6174;49.058;8.524;2023-07-13T13:15:46;25.00;58.00
12223;DHT22;6174;49.058;8.524;2023-07-13T13:18:16;25.10;58.00
12223;DHT22;6174;49.058;8.524;2023-07-13T13:20:43;25.20;57.10
12223;DHT22;6174;49.058;8.524;2023-07-13T13:23:13;25.30;56.60
12223;DHT22;6174;49.058;8.524;2023-07-13T13:25:41;25.50;56.40
12223;DHT22;6174;49.058;8.524;2023-07-13T13:28:13;25.60;55.20
12223;DHT22;6174;49.058;8.524;2023-07-13T13:30:41;25.80;55.80
12223;DHT22;6174;49.058;8.524;2023-07-13T13:33:10;26.00;55.80
12223;DHT22;6174;49.058;8.524;2023-07-13T13:35:37;26.10;56.00
12223;DHT22;6174;49.058;8.524;2023-07-13T13:38:10;26.10;54.70
12223;DHT22;6174;49.058;8.524;2023-07-13T13:40:37;26.00;54.80
12223;DHT22;6174;49.058;8.524;2023-07-13T13:43:14;25.80;54.00
12223;DHT22;6174;49.058;8.524;2023-07-13T13:45:42;25.70;56.20
12223;DHT22;6174;49.058;8.524;2023-07-13T13:48:14;25.60;55.90
12223;DHT22;6174;49.058;8.524;2023-07-13T13:50:41;25.80;55.90
12223;DHT22;6174;49.058;8.524;2023-07-13T13:53:10;25.80;55.90
12223;DHT22;6174;49.058;8.524;2023-07-13T13:55:38;26.10;55.80
12223;DHT22;6174;49.058;8.524;2023-07-13T13:58:07;26.20;55.40
12223;DHT22;6174;49.058;8.524;2023-07-13T14:00:35;26.30;54.80
12223;DHT22;6174;49.058;8.524;2023-07-13T14:03:03;26.20;54.90
12223;DHT22;6174;49.058;8.524;2023-07-13T14:05:31;26.30;57.50
12223;DHT22;6174;49.058;8.524;2023-07-13T14:07:58;26.40;55.10
12223;DHT22;6174;49.058;8.524;2023-07-13T14:10:25;26.40;54.70
12223;DHT22;6174;49.058;8.524;2023-07-13T14:12:54;26.50;53.80
12223;DHT22;6174;49.058;8.524;2023-07-13T14:15:24;26.40;54.70
12223;DHT22;6174;49.058;8.524;2023-07-13T14:17:53;26.50;53.30
12223;DHT22;6174;49.058;8.524;2023-07-13T14:20:21;26.30;53.00
12223;DHT22;6174;49.058;8.524;2023-07-13T14:22:50;26.30;53.40
12223;DHT22;6174;49.058;8.524;2023-07-13T14:25:17;26.20;53.50
12223;DHT22;6174;49.058;8.524;2023-07-13T14:27:45;26.40;52.80
12223;DHT22;6174;49.058;8.524;2023-07-13T14:30:14;26.50;52.70
12223;DHT22;6174;49.058;8.524;2023-07-13T14:32:42;26.50;52.50
12223;DHT22;6174;49.058;8.524;2023-07-13T14:35:19;26.50;52.00
12223;DHT22;6174;49.058;8.524;2023-07-13T14:37:47;26.50;53.40
12223;DHT22;6174;49.058;8.524;2023-07-13T14:40:16;26.70;54.70
12223;DHT22;6174;49.058;8.524;2023-07-13T14:42:43;26.60;54.50
12223;DHT22;6174;49.058;8.524;2023-07-13T14:45:14;26.40;55.60
12223;DHT22;6174;49.058;8.524;2023-07-13T14:47:42;26.30;55.80
12223;DHT22;6174;49.058;8.524;2023-07-13T14:50:15;26.20;56.30
12223;DHT22;6174;49.058;8.524;2023-07-13T14:52:44;26.40;55.70
12223;DHT22;6174;49.058;8.524;2023-07-13T14:55:13;26.40;55.70
12223;DHT22;6174;49.058;8.524;2023-07-13T14:57:40;26.40;55.40
12223;DHT22;6174;49.058;8.524;2023-07-13T15:00:13;26.40;56.20
12223;DHT22;6174;49.058;8.524;2023-07-13T15:02:42;26.30;55.30
12223;DHT22;6174;49.058;8.524;2023-07-13T15:05:15;26.30;54.80
12223;DHT22;6174;49.058;8.524;2023-07-13T15:07:44;26.30;56.30
12223;DHT22;6174;49.058;8.524;2023-07-13T15:10:16;26.30;55.80
12223;DHT22;6174;49.058;8.524;2023-07-13T15:12:43;26.30;54.80
12223;DHT22;6174;49.058;8.524;2023-07-13T15:15:11;26.20;54.60
12223;DHT22;6174;49.058;8.524;2023-07-13T15:17:40;26.30;54.80
12223;DHT22;6174;49.058;8.524;2023-07-13T15:20:17;26.20;55.60
12223;DHT22;6174;49.058;8.524;2023-07-13T15:22:48;26.10;53.90
12223;DHT22;6174;49.058;8.524;2023-07-13T15:25:17;26.00;54.40
12223;DHT22;6174;49.058;8.524;2023-07-13T15:27:45;25.90;54.70
12223;DHT22;6174;49.058;8.524;2023-07-13T15:30:13;25.70;55.40
12223;DHT22;6174;49.058;8.524;2023-07-13T15:32:41;25.60;55.80
12223;DHT22;6174;49.058;8.524;2023-07-13T15:35:14;25.40;56.70
12223;DHT22;6174;49.058;8.524;2023-07-13T15:37:41;25.50;56.00
12223;DHT22;6174;49.058;8.524;2023-07-13T15:40:11;25.50;56.50
12223;DHT22;6174;49.058;8.524;2023-07-13T15:42:39;25.50;56.30
12223;DHT22;6174;49.058;8.524;2023-07-13T15:45:15;25.50;56.00
12223;DHT22;6174;49.058;8.524;2023-07-13T15:47:43;25.60;56.30
12223;DHT22;6174;49.058;8.524;2023-07-13T15:50:13;25.70;56.80
12223;DHT22;6174;49.058;8.524;2023-07-13T15:52:41;25.80;55.90
12223;DHT22;6174;49.058;8.524;2023-07-13T15:55:11;25.70;54.90
12223;DHT22;6174;49.058;8.524;2023-07-13T15:57:38;25.70;56.30
12223;DHT22;6174;49.058;8.524;2023-07-13T16:00:14;25.70;55.90
12223;DHT22;6174;49.058;8.524;2023-07-13T16:02:43;25.70;55.60
12223;DHT22;6174;49.058;8.524;2023-07-13T16:05:10;25.70;56.00
12223;DHT22;6174;49.058;8.524;2023-07-13T16:07:36;25.70;57.30
12223;DHT22;6174;49.058;8.524;2023-07-13T16:10:04;25.90;56.40
12223;DHT22;6174;49.058;8.524;2023-07-13T16:12:34;25.90;55.10
12223;DHT22;6174;49.058;8.524;2023-07-13T16:15:00;25.80;54.50
12223;DHT22;6174;49.058;8.524;2023-07-13T16:17:28;25.80;54.90
12223;DHT22;6174;49.058;8.524;2023-07-13T16:19:55;25.80;54.80
12223;DHT22;6174;49.058;8.524;2023-07-13T16:22:24;25.80;55.10
12223;DHT22;6174;49.058;8.524;2023-07-13T16:24:51;25.80;55.30
12223;DHT22;6174;49.058;8.524;2023-07-13T16:27:21;25.80;55.30
12223;DHT22;6174;49.058;8.524;2023-07-13T16:29:51;25.70;54.60
12223;DHT22;6174;49.058;8.524;2023-07-13T16:32:18;25.60;55.00
12223;DHT22;6174;49.058;8.524;2023-07-13T16:34:45;25.60;54.70
12223;DHT22;6174;49.058;8.524;2023-07-13T16:37:15;25.70;56.10
12223;DHT22;6174;49.058;8.524;2023-07-13T16:39:48;25.60;54.70
12223;DHT22;6174;49.058;8.524;2023-07-13T16:42:15;25.70;55.20
12223;DHT22;6174;49.058;8.524;2023-07-13T16:44:41;25.60;54.90
12223;DHT22;6174;49.058;8.524;2023-07-13T16:47:12;25.60;55.50
12223;DHT22;6174;49.058;8.524;2023-07-13T16:49:40;25.60;55.10
12223;DHT22;6174;49.058;8.524;2023-07-13T16:52:09;25.70;55.40
12223;DHT22;6174;49.058;8.524;2023-07-13T16:54:40;25.80;55.90
12223;DHT22;6174;49.058;8.524;2023-07-13T16:57:13;25.80;55.20
12223;DHT22;6174;49.058;8.524;2023-07-13T16:59:41;25.80;55.50
12223;DHT22;6174;49.058;8.524;2023-07-13T17:02:31;25.80;55.70
12223;DHT22;6174;49.058;8.524;2023-07-13T17:05:00;25.70;57.40
12223;DHT22;6174;49.058;8.524;2023-07-13T17:07:27;25.70;56.40
12223;DHT22;6174;49.058;8.524;2023-07-13T17:09:55;25.80;56.00
12223;DHT22;6174;49.058;8.524;2023-07-13T17:12:21;25.90;55.50
12223;DHT22;6174;49.058;8.524;2023-07-13T17:14:49;25.80;55.30
12223;DHT22;6174;49.058;8.524;2023-07-13T17:17:26;25.70;55.10
12223;DHT22;6174;49.058;8.524;2023-07-13T17:20:01;25.60;55.00
12223;DHT22;6174;49.058;8.524;2023-07-13T17:22:28;25.40;55.60
12223;DHT22;6174;49.058;8.524;2023-07-13T17:24:55;25.40;56.50
12223;DHT22;6174;49.058;8.524;2023-07-13T17:27:22;25.40;56.80
12223;DHT22;6174;49.058;8.524;2023-07-13T17:29:49;25.50;57.20
12223;DHT22;6174;49.058;8.524;2023-07-13T17:32:18;25.60;55.80
12223;DHT22;6174;49.058;8.524;2023-07-13T17:34:47;25.50;57.00
12223;DHT22;6174;49.058;8.524;2023-07-13T17:37:14;25.60;56.20
12223;DHT22;6174;49.058;8.524;2023-07-13T17:39:42;25.60;56.50
12223;DHT22;6174;49.058;8.524;2023-07-13T17:42:10;25.50;55.60
12223;DHT22;6174;49.058;8.524;2023-07-13T17:44:38;25.60;55.90
12223;DHT22;6174;49.058;8.524;2023-07-13T17:47:05;25.60;56.20
12223;DHT22;6174;49.058;8.524;2023-07-13T17:49:35;25.60;56.90
12223;DHT22;6174;49.058;8.524;2023-07-13T17:52:04;25.70;56.30
12223;DHT22;6174;49.058;8.524;2023-07-13T17:54:31;25.60;56.50
12223;DHT22;6174;49.058;8.524;2023-07-13T17:56:59;25.70;56.10
12223;DHT22;6174;49.058;8.524;2023-07-13T17:59:26;25.60;55.90
12223;DHT22;6174;49.058;8.524;2023-07-13T18:01:53;25.60;56.10
12223;DHT22;6174;49.058;8.524;2023-07-13T18:04:20;25.50;55.80
12223;DHT22;6174;49.058;8.524;2023-07-13T18:06:49;25.40;56.30
12223;DHT22;6174;49.058;8.524;2023-07-13T18:09:23;25.30;56.20
12223;DHT22;6174;49.058;8.524;2023-07-13T18:11:51;25.30;56.00
12223;DHT22;6174;49.058;8.524;2023-07-13T18:14:19;25.20;56.40
12223;DHT22;6174;49.058;8.524;2023-07-13T18:16:50;25.20;56.60
12223;DHT22;6174;49.058;8.524;2023-07-13T18:19:26;25.30;56.50
12223;DHT22;6174;49.058;8.524;2023-07-13T18:21:53;25.30;56.90
12223;DHT22;6174;49.058;8.524;2023-07-13T18:24:21;25.40;56.40
12223;DHT22;6174;49.058;8.524;2023-07-13T18:26:48;25.40;56.10
12223;DHT22;6174;49.058;8.524;2023-07-13T18:29:15;25.30;56.50
12223;DHT22;6174;49.058;8.524;2023-07-13T18:31:42;25.20;56.20
12223;DHT22;6174;49.058;8.524;2023-07-13T18:34:11;25.20;56.50
12223;DHT22;6174;49.058;8.524;2023-07-13T18:36:39;25.10;56.40
12223;DHT22;6174;49.058;8.524;2023-07-13T18:39:11;25.00;56.80
12223;DHT22;6174;49.058;8.524;2023-07-13T18:41:40;25.00;56.70
12223;DHT22;6174;49.058;8.524;2023-07-13T18:44:07;25.10;57.00
12223;DHT22;6174;49.058;8.524;2023-07-13T18:46:34;25.00;56.90
12223;DHT22;6174;49.058;8.524;2023-07-13T18:49:02;25.00;57.70
12223;DHT22;6174;49.058;8.524;2023-07-13T18:51:30;25.00;57.10
12223;DHT22;6174;49.058;8.524;2023-07-13T18:53:57;24.90;59.30
12223;DHT22;6174;49.058;8.524;2023-07-13T18:56:24;24.80;57.80
12223;DHT22;6174;49.058;8.524;2023-07-13T18:58:52;24.70;58.00
12223;DHT22;6174;49.058;8.524;2023-07-13T19:01:23;24.70;58.40
12223;DHT22;6174;49.058;8.524;2023-07-13T19:03:52;24.70;59.10
12223;DHT22;6174;49.058;8.524;2023-07-13T19:06:19;24.60;59.50
12223;DHT22;6174;49.058;8.524;2023-07-13T19:08:46;24.60;59.70
12223;DHT22;6174;49.058;8.524;2023-07-13T19:11:17;24.40;62.00
12223;DHT22;6174;49.058;8.524;2023-07-13T19:13:48;24.30;62.40
12223;DHT22;6174;49.058;8.524;2023-07-13T19:16:17;24.10;62.90
12223;DHT22;6174;49.058;8.524;2023-07-13T19:18:45;23.90;63.30
12223;DHT22;6174;49.058;8.524;2023-07-13T19:24:05;23.70;65.20
12223;DHT22;6174;49.058;8.524;2023-07-13T19:26:35;23.50;64.50
12223;DHT22;6174;49.058;8.524;2023-07-13T19:29:03;23.40;64.70
12223;DHT22;6174;49.058;8.524;2023-07-13T19:31:35;23.30;65.80
12223;DHT22;6174;49.058;8.524;2023-07-13T19:34:15;23.20;66.60
12223;DHT22;6174;49.058;8.524;2023-07-13T19:36:43;23.20;66.10
12223;DHT22;6174;49.058;8.524;2023-07-13T19:39:20;23.10;67.30
12223;DHT22;6174;49.058;8.524;2023-07-13T19:41:48;23.00;67.80
12223;DHT22;6174;49.058;8.524;2023-07-13T19:44:15;23.00;68.40
12223;DHT22;6174;49.058;8.524;2023-07-13T19:46:44;22.90;67.20
12223;DHT22;6174;49.058;8.524;2023-07-13T19:49:11;23.00;68.70
12223;DHT22;6174;49.058;8.524;2023-07-13T19:51:41;23.00;68.40
12223;DHT22;6174;49.058;8.524;2023-07-13T19:54:11;22.90;68.70
12223;DHT22;6174;49.058;8.524;2023-07-13T19:56:39;22.80;68.80
12223;DHT22;6174;49.058;8.524;2023-07-13T19:59:22;22.80;69.40
12223;DHT22;6174;49.058;8.524;2023-07-13T20:01:50;22.80;70.20
12223;DHT22;6174;49.058;8.524;2023-07-13T20:04:17;22.70;71.70
12223;DHT22;6174;49.058;8.524;2023-07-13T20:06:45;22.70;71.40
12223;DHT22;6174;49.058;8.524;2023-07-13T20:09:18;22.70;70.80
12223;DHT22;6174;49.058;8.524;2023-07-13T20:11:46;22.70;72.90
12223;DHT22;6174;49.058;8.524;2023-07-13T20:14:25;22.50;72.90
12223;DHT22;6174;49.058;8.524;2023-07-13T20:16:59;22.50;73.70
12223;DHT22;6174;49.058;8.524;2023-07-13T20:19:29;22.40;74.50
12223;DHT22;6174;49.058;8.524;2023-07-13T20:21:57;22.40;74.60
12223;DHT22;6174;49.058;8.524;2023-07-13T20:24:23;22.40;75.60
12223;DHT22;6174;49.058;8.524;2023-07-13T20:26:50;22.20;75.20
12223;DHT22;6174;49.058;8.524;2023-07-13T20:29:17;22.20;74.30
12223;DHT22;6174;49.058;8.524;2023-07-13T20:31:45;22.10;73.00
12223;DHT22;6174;49.058;8.524;2023-07-13T20:34:18;22.00;72.80
12223;DHT22;6174;49.058;8.524;2023-07-13T20:36:45;22.00;73.10
12223;DHT22;6174;49.058;8.524;2023-07-13T20:39:12;21.90;74.50
12223;DHT22;6174;49.058;8.524;2023-07-13T20:41:38;21.90;74.00
12223;DHT22;6174;49.058;8.524;2023-07-13T20:44:05;21.90;74.30
12223;DHT22;6174;49.058;8.524;2023-07-13T20:46:33;21.80;75.20
12223;DHT22;6174;49.058;8.524;2023-07-13T20:49:00;21.80;73.40
12223;DHT22;6174;49.058;8.524;2023-07-13T20:51:29;21.60;73.60
12223;DHT22;6174;49.058;8.524;2023-07-13T20:53:57;21.50;74.30
12223;DHT22;6174;49.058;8.524;2023-07-13T20:56:26;21.50;75.90
12223;DHT22;6174;49.058;8.524;2023-07-13T20:58:54;21.60;76.50
12223;DHT22;6174;49.058;8.524;2023-07-13T21:01:25;21.50;75.10
12223;DHT22;6174;49.058;8.524;2023-07-13T21:03:53;21.50;75.30
12223;DHT22;6174;49.058;8.524;2023-07-13T21:06:21;21.50;76.30
12223;DHT22;6174;49.058;8.524;2023-07-13T21:08:49;21.40;76.80